Time;durP1;ratioP1;P1;durP2;ratioP2;P2;SDS_P1;SDS_P2;PMS_P1;PMS_P2;Temp;Humidity;BMP_temperature;BMP_pressure;BME280_temperature;BME280_humidity;BME280_pressure;Samples;Min_cycle;Max_cycle;Signal;HPM_P1;HPM_P2
2022/10/14 00:01:25;;;;;;;2.27;1.50;;;15.20;73.50;;;;;;4987878;28;21059;-70
2022/10/14 00:03:54;;;;;;;1.60;1.50;;;15.10;72.50;;;;;;4973970;28;20484;-70
2022/10/14 00:06:25;;;;;;;1.80;1.70;;;15.10;72.90;;;;;;4975359;28;20802;-70
2022/10/14 00:08:54;;;;;;;4.77;1.97;;;15.10;73.30;;;;;;4981720;28;20445;-70
2022/10/14 00:11:27;;;;;;;1.33;1.23;;;15.10;72.60;;;;;;4975533;28;20429;-70
2022/10/14 00:13:56;;;;;;;1.70;1.43;;;15.10;72.10;;;;;;4989397;28;20483;-70
2022/10/14 00:16:27;;;;;;;2.37;1.83;;;15.10;71.60;;;;;;4981756;28;20553;-70
2022/10/14 00:18:56;;;;;;;1.93;1.60;;;15.10;71.50;;;;;;4992020;28;20542;-70
2022/10/14 00:21:26;;;;;;;1.30;1.20;;;15.10;72.60;;;;;;4972189;28;20989;-71
2022/10/14 00:23:55;;;;;;;2.00;1.87;;;15.10;71.50;;;;;;4987647;28;20892;-71
2022/10/14 00:26:27;;;;;;;4.03;2.57;;;15.10;72.10;;;;;;4975104;28;20441;-70
2022/10/14 00:28:56;;;;;;;2.17;1.97;;;15.10;72.50;;;;;;4983767;28;20954;-70
2022/10/14 00:31:26;;;;;;;1.40;1.30;;;15.10;72.20;;;;;;4971978;28;20457;-70
2022/10/14 00:33:55;;;;;;;1.83;1.40;;;15.10;71.50;;;;;;4955841;28;20517;-70
2022/10/14 00:36:24;;;;;;;1.60;1.50;;;15.10;71.60;;;;;;4969887;28;20861;-70
2022/10/14 00:38:54;;;;;;;2.63;2.40;;;15.10;72.30;;;;;;4989131;28;20514;-71
2022/10/14 00:41:24;;;;;;;2.20;1.73;;;15.10;72.00;;;;;;5016488;28;20512;-69
2022/10/14 00:43:58;;;;;;;1.50;1.40;;;15.10;72.20;;;;;;4984950;28;20498;-71
2022/10/14 00:46:29;;;;;;;2.43;1.87;;;15.10;72.00;;;;;;5006607;28;20972;-69
2022/10/14 00:49:06;;;;;;;1.80;1.70;;;15.10;71.50;;;;;;5007039;28;20436;-71
2022/10/14 00:51:35;;;;;;;1.97;1.77;;;15.10;71.70;;;;;;4985157;28;20976;-69
2022/10/14 00:54:04;;;;;;;1.67;1.57;;;15.10;72.00;;;;;;4984557;28;20865;-69
2022/10/14 00:56:34;;;;;;;2.40;1.60;;;15.10;71.90;;;;;;4969476;28;20537;-69
2022/10/14 00:59:05;;;;;;;2.33;1.97;;;15.10;71.40;;;;;;4969823;28;20442;-69
2022/10/14 01:01:34;;;;;;;1.80;1.70;;;15.10;71.70;;;;;;4970730;28;20526;-70
2022/10/14 01:04:02;;;;;;;1.90;1.70;;;15.10;72.00;;;;;;4981513;28;20853;-70
2022/10/14 01:06:43;;;;;;;2.40;1.93;;;15.10;72.50;;;;;;4977797;28;20479;-70
2022/10/14 01:09:23;;;;;;;1.50;1.40;;;15.10;73.00;;;;;;4990980;28;20479;-70
2022/10/14 01:12:13;;;;;;;2.30;1.90;;;15.10;72.30;;;;;;4978290;28;20526;-69
2022/10/14 01:15:07;;;;;;;2.17;1.63;;;15.10;72.20;;;;;;4987550;28;20977;-70
2022/10/14 01:17:47;;;;;;;1.80;1.70;;;15.10;72.20;;;;;;4991095;28;20559;-70
2022/10/14 01:20:41;;;;;;;1.70;1.60;;;15.10;71.90;;;;;;4988907;28;20464;-70
2022/10/14 01:23:28;;;;;;;2.97;2.30;;;15.10;71.40;;;;;;4987337;28;20473;-70
2022/10/14 01:26:09;;;;;;;1.97;1.20;;;15.10;72.30;;;;;;4984779;28;20442;-70
2022/10/14 01:28:51;;;;;;;1.30;1.20;;;15.10;71.60;;;;;;4983212;28;20481;-70
2022/10/14 01:31:23;;;;;;;1.70;1.60;;;15.10;71.90;;;;;;4987282;28;20477;-71
2022/10/14 01:33:56;;;;;;;1.50;1.40;;;15.10;72.70;;;;;;4992225;28;20560;-70
2022/10/14 01:36:31;;;;;;;2.13;1.50;;;15.10;72.80;;;;;;5004318;28;20467;-70
2022/10/14 01:39:07;;;;;;;1.50;1.40;;;15.10;72.90;;;;;;4998753;28;20477;-70
2022/10/14 01:41:40;;;;;;;1.60;1.50;;;15.10;72.30;;;;;;4977096;28;20919;-70
2022/10/14 01:44:11;;;;;;;1.67;1.57;;;15.10;72.50;;;;;;4991587;28;20444;-70
2022/10/14 01:46:46;;;;;;;1.47;1.37;;;15.10;72.60;;;;;;4984268;28;20454;-69
2022/10/14 01:49:20;;;;;;;2.43;1.80;;;15.10;72.80;;;;;;4988097;28;20465;-70
2022/10/14 01:51:54;;;;;;;1.83;1.73;;;15.10;72.60;;;;;;4968603;28;20441;-70
2022/10/14 01:54:29;;;;;;;1.23;1.10;;;15.10;72.70;;;;;;4971911;28;21003;-70
2022/10/14 01:57:02;;;;;;;1.40;1.30;;;15.10;72.60;;;;;;4971484;28;20527;-69
2022/10/14 01:59:31;;;;;;;1.90;1.80;;;15.10;72.80;;;;;;4972292;28;20798;-69
2022/10/14 02:02:01;;;;;;;2.30;2.10;;;15.10;72.80;;;;;;4969570;28;20882;-70
2022/10/14 02:04:29;;;;;;;1.93;1.67;;;15.10;72.10;;;;;;4968101;28;20459;-69
2022/10/14 02:07:05;;;;;;;1.60;1.50;;;15.10;72.40;;;;;;4956287;28;20470;-69
2022/10/14 02:09:41;;;;;;;1.50;1.40;;;15.10;72.20;;;;;;4977351;28;20461;-70
2022/10/14 02:12:23;;;;;;;1.40;1.30;;;15.10;72.60;;;;;;4994005;28;20553;-71
2022/10/14 02:15:02;;;;;;;1.80;1.70;;;15.10;73.20;;;;;;4999980;28;20413;-69
2022/10/14 02:17:37;;;;;;;1.50;1.40;;;15.10;73.10;;;;;;5018303;28;20479;-69
2022/10/14 02:20:14;;;;;;;1.30;1.20;;;15.10;73.60;;;;;;5001795;28;20467;-69
2022/10/14 02:22:45;;;;;;;1.83;1.67;;;15.10;73.80;;;;;;5023668;28;20576;-69
2022/10/14 02:25:18;;;;;;;1.30;1.20;;;15.00;73.00;;;;;;5012440;28;20440;-69
2022/10/14 02:27:48;;;;;;;1.70;1.60;;;15.10;73.80;;;;;;5000255;28;20471;-69
2022/10/14 02:30:18;;;;;;;1.40;1.30;;;15.10;73.90;;;;;;5007747;28;20448;-69
2022/10/14 02:32:55;;;;;;;1.23;1.13;;;15.10;74.00;;;;;;4997101;28;20490;-70
2022/10/14 02:35:24;;;;;;;1.40;1.30;;;15.00;73.20;;;;;;5002132;28;20465;-69
2022/10/14 02:37:56;;;;;;;2.33;1.33;;;15.00;73.10;;;;;;5010273;28;20483;-69
2022/10/14 02:40:29;;;;;;;1.50;1.40;;;15.00;72.60;;;;;;5001184;28;20444;-69
2022/10/14 02:42:58;;;;;;;1.47;1.30;;;15.10;72.80;;;;;;5005190;28;20472;-70
2022/10/14 02:45:27;;;;;;;1.67;1.57;;;15.00;72.50;;;;;;5014276;28;20895;-69
2022/10/14 02:47:57;;;;;;;2.20;2.00;;;15.00;73.40;;;;;;5005410;28;20477;-69
2022/10/14 02:50:25;;;;;;;1.53;1.33;;;15.00;73.60;;;;;;5003963;28;20436;-69
2022/10/14 02:52:54;;;;;;;1.50;1.40;;;15.00;73.80;;;;;;5010905;28;20468;-69
2022/10/14 02:55:22;;;;;;;1.40;1.30;;;15.00;73.70;;;;;;5002223;28;20444;-69
2022/10/14 02:57:51;;;;;;;1.40;1.30;;;15.10;74.20;;;;;;5012690;28;20471;-69
2022/10/14 03:00:20;;;;;;;1.27;1.17;;;15.00;75.80;;;;;;5012870;28;20619;-69
2022/10/14 03:02:48;;;;;;;1.27;1.00;;;15.10;74.80;;;;;;5002695;28;21069;-69
2022/10/14 03:05:20;;;;;;;1.27;1.17;;;15.10;74.70;;;;;;5002897;28;20785;-69
2022/10/14 03:07:48;;;;;;;1.50;1.30;;;15.00;74.60;;;;;;4997034;28;20580;-69
2022/10/14 03:10:19;;;;;;;1.10;1.00;;;15.00;73.80;;;;;;5001171;28;20781;-69
2022/10/14 03:12:48;;;;;;;1.57;1.47;;;15.00;73.80;;;;;;5004430;28;20564;-69
2022/10/14 03:15:25;;;;;;;1.43;1.00;;;15.00;73.70;;;;;;4998844;28;20539;-69
2022/10/14 03:17:54;;;;;;;1.87;1.40;;;15.00;73.30;;;;;;4994867;28;20472;-69
2022/10/14 03:20:33;;;;;;;1.23;1.13;;;15.00;73.20;;;;;;4992785;28;20508;-69
2022/10/14 03:23:01;;;;;;;1.30;1.20;;;15.00;73.20;;;;;;5020500;28;20471;-69
2022/10/14 03:25:33;;;;;;;1.17;1.07;;;15.00;73.20;;;;;;5003615;28;20432;-69
2022/10/14 03:28:11;;;;;;;1.20;1.10;;;15.00;73.50;;;;;;5009132;28;20551;-69
2022/10/14 03:30:51;;;;;;;1.50;1.40;;;15.00;73.50;;;;;;5005108;28;20444;-70
2022/10/14 03:33:37;;;;;;;1.60;1.50;;;15.00;73.30;;;;;;5009949;28;20460;-69
2022/10/14 03:36:12;;;;;;;2.00;1.80;;;15.00;72.80;;;;;;4995819;28;20815;-69
2022/10/14 03:38:45;;;;;;;1.33;1.03;;;15.10;73.00;;;;;;5009676;28;20553;-69
2022/10/14 03:41:26;;;;;;;1.57;1.47;;;15.00;72.10;;;;;;5002040;28;20439;-69
2022/10/14 03:43:55;;;;;;;1.43;1.33;;;15.10;72.10;;;;;;5002936;28;21055;-69
2022/10/14 03:46:24;;;;;;;1.40;1.30;;;15.00;71.80;;;;;;4990633;28;20429;-69
2022/10/14 03:48:53;;;;;;;1.30;1.20;;;15.10;72.10;;;;;;5009632;28;20444;-69
2022/10/14 03:51:23;;;;;;;1.40;1.30;;;15.10;72.50;;;;;;5009577;28;21039;-69
2022/10/14 03:54:01;;;;;;;1.27;1.17;;;15.00;72.50;;;;;;5001382;28;20448;-69
2022/10/14 03:56:30;;;;;;;1.50;1.40;;;15.10;73.10;;;;;;5003490;28;20440;-69
2022/10/14 03:59:00;;;;;;;1.17;1.07;;;15.00;73.50;;;;;;5009876;28;20478;-69
2022/10/14 04:01:28;;;;;;;1.43;1.33;;;15.00;73.30;;;;;;5003517;28;20571;-69
2022/10/14 04:04:20;;;;;;;1.30;1.20;;;15.00;73.50;;;;;;5009095;28;20479;-69
2022/10/14 04:06:50;;;;;;;1.40;1.30;;;15.00;73.60;;;;;;5000223;28;20476;-69
2022/10/14 04:09:20;;;;;;;1.40;1.30;;;15.00;73.60;;;;;;5002695;28;20431;-69
2022/10/14 04:11:49;;;;;;;1.70;1.00;;;15.00;73.80;;;;;;5003399;28;20445;-70
2022/10/14 04:14:36;;;;;;;1.40;1.30;;;15.00;74.00;;;;;;4992548;28;20881;-69
2022/10/14 04:17:04;;;;;;;1.10;1.00;;;15.00;74.30;;;;;;4999633;28;20478;-69
2022/10/14 04:19:32;;;;;;;0.90;0.90;;;15.00;73.80;;;;;;4981734;28;20441;-69
2022/10/14 04:22:04;;;;;;;1.80;0.93;;;15.00;74.00;;;;;;5018253;28;20850;-69
2022/10/14 04:24:33;;;;;;;1.60;1.50;;;15.00;74.20;;;;;;5001116;28;20994;-69
2022/10/14 04:27:02;;;;;;;1.20;1.10;;;15.00;74.50;;;;;;4989570;28;20992;-69
2022/10/14 04:29:47;;;;;;;1.10;1.00;;;15.00;74.50;;;;;;4996525;28;20440;-69
2022/10/14 04:32:22;;;;;;;1.20;1.10;;;15.00;73.90;;;;;;5006561;28;20539;-70
2022/10/14 04:34:53;;;;;;;1.07;0.90;;;15.00;73.50;;;;;;4999005;28;20440;-69
2022/10/14 04:37:27;;;;;;;0.97;0.87;;;15.00;73.90;;;;;;5002698;28;20475;-69
2022/10/14 04:40:19;;;;;;;1.20;1.10;;;15.00;74.20;;;;;;5013026;28;20475;-69
2022/10/14 04:42:48;;;;;;;1.67;1.27;;;15.00;74.10;;;;;;5005641;28;20906;-69
2022/10/14 04:45:22;;;;;;;1.17;1.07;;;15.00;74.70;;;;;;5003710;28;20449;-69
2022/10/14 04:47:56;;;;;;;1.70;1.60;;;15.00;74.20;;;;;;5004616;28;20498;-69
2022/10/14 04:50:26;;;;;;;1.10;1.00;;;15.00;74.20;;;;;;5012438;28;20495;-69
2022/10/14 04:53:14;;;;;;;1.30;1.20;;;15.00;74.40;;;;;;5029479;28;20499;-69
2022/10/14 04:56:09;;;;;;;1.10;1.00;;;15.00;74.20;;;;;;5017380;28;20991;-69
2022/10/14 04:58:49;;;;;;;1.53;1.43;;;15.00;74.50;;;;;;5000587;28;20515;-69
2022/10/14 05:01:17;;;;;;;1.27;1.17;;;15.00;74.40;;;;;;4999195;28;20801;-69
2022/10/14 05:03:47;;;;;;;1.10;1.00;;;15.00;73.50;;;;;;5006965;28;20464;-69
2022/10/14 05:06:17;;;;;;;1.20;1.03;;;15.00;74.30;;;;;;5014020;28;20506;-69
2022/10/14 05:08:48;;;;;;;1.30;1.20;;;15.00;74.10;;;;;;5005402;28;20440;-69
2022/10/14 05:11:17;;;;;;;1.40;1.30;;;15.00;74.70;;;;;;4987057;28;20433;-69
2022/10/14 05:13:52;;;;;;;1.10;1.00;;;15.00;74.60;;;;;;5006113;28;20440;-70
2022/10/14 05:16:22;;;;;;;1.13;1.03;;;15.00;74.50;;;;;;5003183;28;20536;-69
2022/10/14 05:18:50;;;;;;;1.40;0.77;;;15.00;74.40;;;;;;5013171;28;20464;-69
2022/10/14 05:21:18;;;;;;;1.47;1.37;;;15.00;74.60;;;;;;5010093;28;20880;-69
2022/10/14 05:24:05;;;;;;;1.57;1.47;;;15.00;74.40;;;;;;5012054;28;20863;-69
2022/10/14 05:26:36;;;;;;;0.97;0.87;;;15.00;75.00;;;;;;5005185;28;21021;-69
2022/10/14 05:29:10;;;;;;;1.20;1.10;;;15.00;75.20;;;;;;5026320;28;20448;-69
2022/10/14 05:31:39;;;;;;;1.20;1.10;;;15.00;75.10;;;;;;5024261;28;20476;-69
2022/10/14 05:34:20;;;;;;;1.00;0.90;;;15.00;75.40;;;;;;5025263;28;20516;-69
2022/10/14 05:36:49;;;;;;;1.03;0.93;;;15.00;74.60;;;;;;5021217;23;20475;-73
2022/10/14 05:39:19;;;;;;;0.90;0.90;;;15.00;75.00;;;;;;5054234;28;20451;-74
2022/10/14 05:41:48;;;;;;;1.03;0.93;;;15.00;75.50;;;;;;5028351;28;20444;-74
2022/10/14 05:44:22;;;;;;;1.23;1.13;;;15.00;75.50;;;;;;5028653;28;20464;-73
2022/10/14 05:46:51;;;;;;;2.00;1.07;;;15.00;75.60;;;;;;5021607;28;20482;-75
2022/10/14 05:49:19;;;;;;;2.07;1.43;;;15.00;74.80;;;;;;5028859;28;20436;-75
2022/10/14 05:51:48;;;;;;;0.80;0.80;;;15.00;74.10;;;;;;5028028;28;20447;-75
2022/10/14 05:54:23;;;;;;;1.10;1.00;;;14.90;74.90;;;;;;5045163;28;20478;-74
2022/10/14 05:56:54;;;;;;;0.80;0.80;;;14.90;75.40;;;;;;5015544;28;20551;-74
2022/10/14 05:59:24;;;;;;;1.23;1.13;;;14.90;76.90;;;;;;5030438;28;20443;-73
2022/10/14 06:01:53;;;;;;;1.03;0.93;;;14.90;75.60;;;;;;5038873;28;20499;-75
2022/10/14 06:04:22;;;;;;;1.20;1.10;;;15.00;75.80;;;;;;5028493;28;20460;-73
2022/10/14 06:06:50;;;;;;;0.80;0.80;;;14.90;75.70;;;;;;5031127;28;20443;-75
2022/10/14 06:09:20;;;;;;;0.80;0.80;;;14.90;75.70;;;;;;5043971;28;20915;-74
2022/10/14 06:11:50;;;;;;;1.33;1.00;;;15.00;75.60;;;;;;5028514;28;20495;-75
2022/10/14 06:14:19;;;;;;;0.80;0.80;;;14.90;75.50;;;;;;5028823;28;20452;-74
2022/10/14 06:16:50;;;;;;;0.90;0.70;;;14.90;75.40;;;;;;5027253;28;20495;-74
2022/10/14 06:19:19;;;;;;;1.37;1.10;;;14.90;75.30;;;;;;5028247;28;20919;-74
2022/10/14 06:21:49;;;;;;;1.43;1.33;;;14.90;76.50;;;;;;5025754;28;20518;-73
2022/10/14 06:24:17;;;;;;;1.17;1.07;;;14.90;75.30;;;;;;5026857;28;20472;-73
2022/10/14 06:26:47;;;;;;;1.20;1.10;;;14.90;75.20;;;;;;5034823;28;20805;-73
2022/10/14 06:29:17;;;;;;;1.33;1.10;;;15.00;74.90;;;;;;5029755;28;20438;-73
2022/10/14 06:31:46;;;;;;;1.70;1.20;;;14.90;75.20;;;;;;5021322;28;20597;-73
2022/10/14 06:34:15;;;;;;;1.13;1.00;;;14.90;75.20;;;;;;5037675;28;20475;-73
2022/10/14 06:36:44;;;;;;;1.60;1.50;;;14.90;74.50;;;;;;5027411;28;20874;-75
2022/10/14 06:39:14;;;;;;;1.23;1.13;;;14.90;75.50;;;;;;5027449;28;20438;-72
2022/10/14 06:41:43;;;;;;;1.30;1.20;;;14.90;75.30;;;;;;5031321;28;20490;-73
2022/10/14 06:44:21;;;;;;;0.90;0.80;;;14.90;75.50;;;;;;5028383;28;20470;-74
2022/10/14 06:46:50;;;;;;;1.30;1.20;;;14.90;75.30;;;;;;5031252;28;20884;-73
2022/10/14 06:49:18;;;;;;;1.50;1.40;;;14.90;74.90;;;;;;5035888;28;20444;-73
2022/10/14 06:51:47;;;;;;;2.00;1.83;;;14.90;75.10;;;;;;5026658;28;20459;-73
2022/10/14 06:54:16;;;;;;;1.50;1.23;;;14.90;75.20;;;;;;5047759;28;20459;-73
2022/10/14 06:56:45;;;;;;;1.60;1.20;;;14.90;74.70;;;;;;5032534;28;20827;-73
2022/10/14 06:59:13;;;;;;;1.40;1.30;;;14.90;74.70;;;;;;5033543;28;20443;-73
2022/10/14 07:01:43;;;;;;;1.80;1.20;;;14.90;74.60;;;;;;5022944;28;20840;-74
2022/10/14 07:04:12;;;;;;;1.23;1.20;;;14.90;75.10;;;;;;5029951;28;21005;-74
2022/10/14 07:06:42;;;;;;;0.90;0.90;;;14.90;74.80;;;;;;5039332;28;20435;-75
2022/10/14 07:09:10;;;;;;;1.40;1.30;;;14.90;74.40;;;;;;5048975;28;20452;-73
2022/10/14 07:11:39;;;;;;;1.67;1.10;;;14.90;74.50;;;;;;5029652;28;20448;-73
2022/10/14 07:14:08;;;;;;;1.10;1.00;;;14.90;74.20;;;;;;5028584;28;20526;-73
2022/10/14 07:16:39;;;;;;;1.47;1.27;;;14.90;74.00;;;;;;5030349;28;20444;-73
2022/10/14 07:19:09;;;;;;;1.10;1.00;;;14.90;74.20;;;;;;5029501;28;20869;-73
2022/10/14 07:21:38;;;;;;;0.80;0.80;;;14.90;73.90;;;;;;5033524;28;20535;-73
2022/10/14 07:24:08;;;;;;;1.63;1.47;;;15.00;75.90;;;;;;5035557;28;20447;-74
2022/10/14 07:26:37;;;;;;;1.33;0.93;;;14.90;74.80;;;;;;5033024;28;20440;-74
2022/10/14 07:29:06;;;;;;;1.73;1.27;;;14.90;75.10;;;;;;5034107;28;20548;-73
2022/10/14 07:31:35;;;;;;;1.30;1.20;;;14.90;75.40;;;;;;5021545;28;20469;-74
2022/10/14 07:34:03;;;;;;;1.53;1.37;;;14.90;75.20;;;;;;5043159;28;20520;-74
2022/10/14 07:36:33;;;;;;;1.17;1.07;;;14.90;75.00;;;;;;5051330;28;20445;-73
2022/10/14 07:39:02;;;;;;;1.10;0.90;;;14.90;75.10;;;;;;5027164;28;20479;-72
2022/10/14 07:41:32;;;;;;;1.17;0.80;;;14.90;73.80;;;;;;5033385;28;20443;-73
2022/10/14 07:44:04;;;;;;;1.13;1.03;;;14.90;73.20;;;;;;5034189;28;20439;-73
2022/10/14 07:46:34;;;;;;;1.10;1.00;;;14.90;73.60;;;;;;5045301;28;20472;-72
2022/10/14 07:49:06;;;;;;;3.78;1.63;;;14.90;73.00;;;;;;5022983;28;20444;-74
2022/10/14 07:51:37;;;;;;;1.40;1.30;;;15.00;74.50;;;;;;5027578;28;20189;-73
2022/10/14 07:54:08;;;;;;;3.23;1.20;;;15.00;74.90;;;;;;5029846;28;20460;-73
2022/10/14 07:56:37;;;;;;;2.20;1.47;;;15.00;75.10;;;;;;5036136;28;20439;-74
2022/10/14 07:59:06;;;;;;;1.10;1.00;;;15.00;74.20;;;;;;5019608;28;20858;-73
2022/10/14 08:01:35;;;;;;;1.50;1.40;;;14.90;74.60;;;;;;5024987;28;20525;-73
2022/10/14 08:04:05;;;;;;;0.93;0.93;;;14.90;74.10;;;;;;5036526;28;20435;-74
2022/10/14 08:06:33;;;;;;;1.17;0.90;;;15.00;74.00;;;;;;5027790;28;20526;-73
2022/10/14 08:09:04;;;;;;;2.20;1.83;;;14.90;74.80;;;;;;5024998;28;20487;-73
2022/10/14 08:11:33;;;;;;;0.97;0.83;;;14.90;74.70;;;;;;5015434;28;20440;-73
2022/10/14 08:14:01;;;;;;;1.40;1.30;;;14.90;73.70;;;;;;5030229;28;20823;-73
2022/10/14 08:16:32;;;;;;;0.90;0.90;;;15.00;74.20;;;;;;5027198;28;20440;-75
2022/10/14 08:19:03;;;;;;;1.03;0.93;;;15.00;73.40;;;;;;5032420;28;20462;-75
2022/10/14 08:21:37;;;;;;;1.03;1.00;;;15.00;73.10;;;;;;5034872;28;20441;-75
2022/10/14 08:24:07;;;;;;;1.40;1.30;;;14.90;73.70;;;;;;5029362;28;20455;-73
2022/10/14 08:26:38;;;;;;;1.50;1.13;;;14.90;73.70;;;;;;5051255;28;20518;-72
2022/10/14 08:29:10;;;;;;;1.30;1.20;;;15.00;73.60;;;;;;5031017;28;20809;-74
2022/10/14 08:31:39;;;;;;;1.20;1.10;;;15.00;73.50;;;;;;5031112;28;20518;-72
2022/10/14 08:34:09;;;;;;;0.80;0.80;;;15.00;73.20;;;;;;5031443;28;20527;-73
2022/10/14 08:36:38;;;;;;;1.30;1.00;;;15.00;73.50;;;;;;5037770;28;20470;-73
2022/10/14 08:39:08;;;;;;;1.20;1.10;;;14.90;72.70;;;;;;5030050;28;20443;-73
2022/10/14 08:42:16;;;;;;;1.07;0.70;;;14.90;72.70;;;;;;5032410;28;20467;-73
2022/10/14 08:44:50;;;;;;;1.20;1.10;;;15.00;72.90;;;;;;5033050;28;20854;-73
2022/10/14 08:47:25;;;;;;;2.50;0.97;;;15.00;72.40;;;;;;5033195;28;20876;-72
2022/10/14 08:50:01;;;;;;;0.80;0.70;;;14.90;72.50;;;;;;5039715;28;20438;-73
2022/10/14 08:52:34;;;;;;;0.90;0.90;;;14.90;72.20;;;;;;5027582;28;20529;-73
2022/10/14 08:55:20;;;;;;;1.77;1.00;;;15.00;72.60;;;;;;5029727;28;20432;-72
2022/10/14 08:57:53;;;;;;;0.87;0.77;;;15.00;72.60;;;;;;5029001;28;20472;-75
2022/10/14 09:00:22;;;;;;;1.10;1.10;;;15.00;72.10;;;;;;5035609;28;20434;-71
2022/10/14 09:02:52;;;;;;;1.10;1.00;;;15.00;72.60;;;;;;5024699;28;20451;-73
2022/10/14 09:05:23;;;;;;;0.90;0.90;;;15.00;72.60;;;;;;5029695;28;20497;-72
2022/10/14 09:07:56;;;;;;;1.37;1.27;;;15.00;72.60;;;;;;5028401;28;20528;-74
2022/10/14 09:10:32;;;;;;;1.33;1.23;;;15.00;73.10;;;;;;5028848;28;20460;-73
2022/10/14 09:13:10;;;;;;;1.00;0.90;;;15.00;72.60;;;;;;5034279;28;20836;-73
2022/10/14 09:15:42;;;;;;;1.30;1.10;;;15.00;72.40;;;;;;5023004;28;20420;-72
2022/10/14 09:18:21;;;;;;;1.50;1.40;;;14.90;72.70;;;;;;5024753;28;20576;-69
2022/10/14 09:20:51;;;;;;;1.10;1.00;;;15.00;74.30;;;;;;5024603;28;20450;-73
2022/10/14 09:23:22;;;;;;;1.17;1.07;;;15.00;73.10;;;;;;5024513;28;20507;-72
2022/10/14 09:25:57;;;;;;;1.17;1.07;;;15.00;73.20;;;;;;5027255;28;20987;-73
2022/10/14 09:28:33;;;;;;;1.13;1.03;;;15.00;72.80;;;;;;5023570;28;20467;-74
2022/10/14 09:31:05;;;;;;;1.30;1.13;;;15.00;74.50;;;;;;5025369;28;20455;-73
2022/10/14 09:33:38;;;;;;;1.23;1.13;;;15.00;73.10;;;;;;5026658;28;21004;-73
2022/10/14 09:36:15;;;;;;;1.50;0.80;;;15.00;72.50;;;;;;5029445;28;20951;-74
2022/10/14 09:38:46;;;;;;;1.03;0.93;;;15.00;72.40;;;;;;5025233;28;20559;-73
2022/10/14 09:41:16;;;;;;;1.30;1.17;;;15.00;72.30;;;;;;5028869;28;20448;-69
2022/10/14 09:44:17;;;;;;;1.30;1.13;;;15.00;72.70;;;;;;5044395;28;21014;-69
2022/10/14 09:46:52;;;;;;;1.30;1.20;;;15.00;72.30;;;;;;5038393;28;20517;-69
2022/10/14 09:49:29;;;;;;;1.20;1.10;;;15.00;73.00;;;;;;5028183;28;20447;-68
2022/10/14 09:51:58;;;;;;;1.60;1.03;;;15.00;72.60;;;;;;5026330;28;20463;-72
2022/10/14 09:54:30;;;;;;;1.27;1.17;;;15.00;72.20;;;;;;5045718;28;20452;-75
2022/10/14 09:57:04;;;;;;;1.37;1.27;;;15.00;72.10;;;;;;5040875;28;20460;-73
2022/10/14 09:59:33;;;;;;;1.33;1.10;;;15.00;72.40;;;;;;5044739;28;20474;-73
2022/10/14 10:02:04;;;;;;;0.90;0.90;;;15.00;71.90;;;;;;5030610;28;20451;-74
2022/10/14 10:04:37;;;;;;;2.27;1.40;;;15.00;71.50;;;;;;5018950;28;20440;-70
2022/10/14 10:07:08;;;;;;;1.33;1.17;;;15.00;72.80;;;;;;5022224;28;20482;-68
2022/10/14 10:09:36;;;;;;;1.10;1.00;;;15.00;72.10;;;;;;5021440;28;20454;-68
2022/10/14 10:12:27;;;;;;;1.10;1.00;;;15.00;72.00;;;;;;5030538;28;20582;-69
2022/10/14 10:14:58;;;;;;;1.20;1.10;;;15.00;72.10;;;;;;5047551;28;21005;-70
2022/10/14 10:17:28;;;;;;;1.23;1.17;;;15.00;71.60;;;;;;5006403;28;20484;-69
2022/10/14 10:20:11;;;;;;;1.63;1.17;;;15.00;71.50;;;;;;5027366;28;21226;-69
2022/10/14 10:22:40;;;;;;;1.37;1.27;;;15.00;71.80;;;;;;5025389;28;20472;-69
2022/10/14 10:25:27;;;;;;;1.30;1.20;;;15.00;71.30;;;;;;5028026;28;20766;-69
2022/10/14 10:28:00;;;;;;;1.00;0.80;;;15.00;71.30;;;;;;5026239;28;20999;-68
2022/10/14 10:30:31;;;;;;;0.90;0.70;;;15.00;71.50;;;;;;5023356;28;20493;-68
2022/10/14 10:33:28;;;;;;;1.20;1.10;;;15.00;71.40;;;;;;5025907;28;20487;-68
2022/10/14 10:36:08;;;;;;;1.80;0.93;;;15.00;71.20;;;;;;5016145;28;20539;-70
2022/10/14 10:38:45;;;;;;;1.07;0.97;;;15.00;71.80;;;;;;5020670;28;20480;-69
2022/10/14 10:41:23;;;;;;;1.20;1.10;;;15.00;71.30;;;;;;5026251;28;20474;-68
2022/10/14 10:44:15;;;;;;;1.00;0.90;;;15.00;71.20;;;;;;5026057;28;20459;-69
2022/10/14 10:46:59;;;;;;;2.13;1.40;;;15.00;71.50;;;;;;5016469;28;20472;-67
2022/10/14 10:49:44;;;;;;;1.30;1.10;;;15.00;72.20;;;;;;5025607;28;20467;-68
2022/10/14 10:52:18;;;;;;;0.90;0.90;;;15.00;72.20;;;;;;5022173;28;20546;-69
2022/10/14 10:54:59;;;;;;;1.47;1.30;;;15.00;71.50;;;;;;5022939;28;20464;-70
2022/10/14 10:57:51;;;;;;;3.70;0.90;;;15.00;71.50;;;;;;5027300;28;20522;-68
2022/10/14 11:00:22;;;;;;;1.30;1.20;;;15.00;71.60;;;;;;5022892;28;20451;-69
2022/10/14 11:03:16;;;;;;;1.00;0.87;;;15.00;71.40;;;;;;5029524;28;20851;-68
2022/10/14 11:05:58;;;;;;;1.70;1.47;;;15.00;71.50;;;;;;5030256;28;20450;-68
2022/10/14 11:12:06;;;;;;;1.13;1.03;;;15.00;70.90;;;;;;5025870;28;20488;-69
2022/10/14 11:15:08;;;;;;;1.67;1.10;;;15.00;70.80;;;;;;5017775;28;20478;-68
2022/10/14 11:17:47;;;;;;;1.50;1.17;;;15.00;70.50;;;;;;5007399;28;20482;-67
2022/10/14 11:20:25;;;;;;;1.10;1.00;;;15.00;70.50;;;;;;5025287;28;20446;-68
2022/10/14 11:23:07;;;;;;;0.93;0.83;;;15.00;70.30;;;;;;5023442;28;20472;-69
2022/10/14 11:25:48;;;;;;;1.17;1.07;;;15.00;70.30;;;;;;5021232;28;20446;-68
2022/10/14 11:31:55;;;;;;;1.47;0.87;;;15.00;70.20;;;;;;5032770;28;20673;-68
2022/10/14 11:34:42;;;;;;;1.10;0.97;;;15.00;70.00;;;;;;5031853;28;20554;-69
2022/10/14 11:37:27;;;;;;;1.00;0.90;;;15.00;70.10;;;;;;5029713;28;20471;-69
2022/10/14 11:40:00;;;;;;;1.00;0.90;;;15.00;70.10;;;;;;5026287;28;20538;-68
2022/10/14 11:42:43;;;;;;;1.13;0.90;;;15.00;71.30;;;;;;5028568;28;20482;-67
2022/10/14 11:45:31;;;;;;;2.83;0.87;;;15.00;70.00;;;;;;5030524;28;20479;-68
2022/10/14 11:48:08;;;;;;;1.20;1.10;;;15.00;69.90;;;;;;5042374;28;20469;-68
2022/10/14 11:50:41;;;;;;;1.10;0.83;;;15.00;70.00;;;;;;5023782;28;20433;-67
2022/10/14 11:53:15;;;;;;;1.20;1.10;;;15.00;70.00;;;;;;5036864;28;20622;-67
2022/10/14 11:55:49;;;;;;;1.33;1.23;;;15.00;71.20;;;;;;5032340;28;20432;-73
2022/10/14 11:58:25;;;;;;;3.03;1.10;;;15.00;69.90;;;;;;5029683;28;20480;-73
2022/10/14 12:00:59;;;;;;;0.90;0.90;;;15.00;69.80;;;;;;5027069;28;20478;-72
2022/10/14 12:03:43;;;;;;;0.93;0.83;;;15.00;69.60;;;;;;5014271;28;20458;-74
2022/10/14 12:06:17;;;;;;;0.83;0.80;;;15.00;69.70;;;;;;5029423;28;20487;-72
2022/10/14 12:08:52;;;;;;;0.80;0.80;;;15.00;69.90;;;;;;5027146;28;20558;-75
2022/10/14 12:11:28;;;;;;;0.90;0.70;;;15.00;69.80;;;;;;5025378;28;20490;-74
2022/10/14 12:14:06;;;;;;;0.80;0.70;;;15.00;69.80;;;;;;5143032;22;20451;31
2022/10/14 12:16:39;;;;;;;1.10;1.00;;;15.00;69.70;;;;;;4985775;28;20504;-70
2022/10/14 12:19:10;;;;;;;1.20;0.90;;;15.00;69.70;;;;;;4994011;28;20539;-70
2022/10/14 12:21:50;;;;;;;0.97;0.73;;;15.00;69.70;;;;;;4952711;28;20867;-70
2022/10/14 12:24:24;;;;;;;1.30;0.77;;;15.00;69.50;;;;;;4980323;28;20946;-70
2022/10/14 12:26:55;;;;;;;0.90;0.90;;;15.00;69.50;;;;;;4991650;28;20986;-70
2022/10/14 12:29:35;;;;;;;0.97;0.87;;;15.00;69.60;;;;;;4972637;28;20441;-70
2022/10/14 12:32:19;;;;;;;0.93;0.87;;;15.00;69.60;;;;;;4987381;28;20449;-70
2022/10/14 12:34:50;;;;;;;0.97;0.87;;;15.00;69.50;;;;;;4984053;28;20438;-70
2022/10/14 12:37:51;;;;;;;0.80;0.77;;;15.00;69.60;;;;;;4983201;28;20470;-70
2022/10/14 12:40:26;;;;;;;1.00;0.90;;;15.00;69.40;;;;;;4982896;28;20438;-70
2022/10/14 12:43:12;;;;;;;1.13;0.83;;;15.00;69.50;;;;;;4968254;28;20478;-70
2022/10/14 12:45:50;;;;;;;0.80;0.73;;;15.00;69.40;;;;;;4989046;28;20461;-70
2022/10/14 12:48:22;;;;;;;1.00;0.90;;;15.00;69.40;;;;;;4972092;28;20477;-70
2022/10/14 12:51:05;;;;;;;0.70;0.70;;;15.00;70.30;;;;;;4973549;28;20456;-70
2022/10/14 12:53:38;;;;;;;1.37;0.87;;;15.00;69.80;;;;;;4982100;28;20851;-70
2022/10/14 12:56:07;;;;;;;0.90;0.73;;;15.00;69.50;;;;;;4953016;28;20968;-70
2022/10/14 12:58:39;;;;;;;1.10;1.00;;;15.00;69.60;;;;;;4986009;28;20473;-70
2022/10/14 13:01:20;;;;;;;1.10;0.90;;;15.00;69.80;;;;;;4985780;28;20493;-70
2022/10/14 13:03:55;;;;;;;0.80;0.80;;;15.00;69.80;;;;;;4965185;28;20778;-70
2022/10/14 13:06:34;;;;;;;0.70;0.60;;;15.00;69.90;;;;;;4970464;28;20444;-70
2022/10/14 13:09:40;;;;;;;0.90;0.70;;;15.10;69.90;;;;;;4968821;28;20476;-71
2022/10/14 13:12:44;;;;;;;0.80;0.80;;;15.00;69.80;;;;;;4987942;28;20565;-70
2022/10/14 13:15:35;;;;;;;0.70;0.70;;;15.00;69.60;;;;;;4975967;28;20882;-70
2022/10/14 13:18:53;;;;;;;0.70;0.70;;;15.00;69.50;;;;;;4981125;28;20473;-70
2022/10/14 13:21:30;;;;;;;1.23;1.13;;;15.00;70.50;;;;;;4978404;28;20951;-70
2022/10/14 13:24:01;;;;;;;2.23;0.87;;;15.10;73.60;;;;;;4986224;28;20561;-64
2022/10/14 13:26:38;;;;;;;2.33;0.80;;;15.10;72.30;;;;;;4965915;28;20433;-64
2022/10/14 13:29:24;;;;;;;0.80;0.80;;;15.10;71.00;;;;;;4999103;28;20862;-64
2022/10/14 13:32:01;;;;;;;2.30;0.80;;;15.10;70.60;;;;;;4962340;28;20955;-64